Alba, Pennsylvania
Current Conditions -  °F | °C
As of 2:35 AM on Thursday 23 Oct 2014 (Local Time) from KN38 Reporting Station
Overcast Overcast  
Wind Chill:   Ceiling: 1500
Heat Index:   Visibility: 10mi
Dew Point:   Wind: 21mph
Humidity: 87%   Direction: 10°N
Pressure: 30.01"   Gusts: 33mph
Location:  41.71°N, 76.83°W
Report Text: KN38 230635Z AUTO 01018G29KT 10SM OVC015 07/05 A3001 RMK AO2
Loading
Personal Weather Stations






























Interactive Weather Map
Tropical Storm Tracking
New forecast layout! Learn more

10-Day Weather Forecast

Advertisements
Track Severe Weather on mobile